sensor_id;sensor_type;location;lat;lon;timestamp;temperature;humidity
23748;DHT22;12054;53.662;10.126;2023-01-10T00:00:48;7.30;99.90
23748;DHT22;12054;53.662;10.126;2023-01-10T00:03:14;7.30;99.90
23748;DHT22;12054;53.662;10.126;2023-01-10T00:05:42;7.30;99.90
23748;DHT22;12054;53.662;10.126;2023-01-10T00:08:15;7.20;99.90
23748;DHT22;12054;53.662;10.126;2023-01-10T00:10:41;7.30;99.90
23748;DHT22;12054;53.662;10.126;2023-01-10T00:13:14;7.30;99.90
23748;DHT22;12054;53.662;10.126;2023-01-10T00:15:50;7.20;99.90
23748;DHT22;12054;53.662;10.126;2023-01-10T00:18:16;7.20;99.90
23748;DHT22;12054;53.662;10.126;2023-01-10T00:20:41;7.40;99.90
23748;DHT22;12054;53.662;10.126;2023-01-10T00:23:09;7.20;99.90
23748;DHT22;12054;53.662;10.126;2023-01-10T00:25:35;7.20;99.90
23748;DHT22;12054;53.662;10.126;2023-01-10T00:28:00;7.30;99.90
23748;DHT22;12054;53.662;10.126;2023-01-10T00:30:39;7.30;99.90
23748;DHT22;12054;53.662;10.126;2023-01-10T00:33:05;7.20;99.90
23748;DHT22;12054;53.662;10.126;2023-01-10T00:36:01;7.30;99.90
23748;DHT22;12054;53.662;10.126;2023-01-10T00:38:26;7.30;99.90
23748;DHT22;12054;53.662;10.126;2023-01-10T00:40:51;7.20;99.90
23748;DHT22;12054;53.662;10.126;2023-01-10T00:43:19;7.20;99.90
23748;DHT22;12054;53.662;10.126;2023-01-10T00:46:04;7.20;99.90
23748;DHT22;12054;53.662;10.126;2023-01-10T00:48:29;7.20;99.90
23748;DHT22;12054;53.662;10.126;2023-01-10T00:50:55;7.30;99.90
23748;DHT22;12054;53.662;10.126;2023-01-10T00:53:21;7.30;99.90
23748;DHT22;12054;53.662;10.126;2023-01-10T00:55:47;7.30;99.90
23748;DHT22;12054;53.662;10.126;2023-01-10T00:58:14;7.20;99.90
23748;DHT22;12054;53.662;10.126;2023-01-10T01:00:40;7.20;99.90
23748;DHT22;12054;53.662;10.126;2023-01-10T01:03:06;7.20;99.90
23748;DHT22;12054;53.662;10.126;2023-01-10T01:05:32;7.20;99.90
23748;DHT22;12054;53.662;10.126;2023-01-10T01:07:59;7.20;99.90
23748;DHT22;12054;53.662;10.126;2023-01-10T01:10:25;7.20;99.90
23748;DHT22;12054;53.662;10.126;2023-01-10T01:12:50;7.20;99.90
23748;DHT22;12054;53.662;10.126;2023-01-10T01:15:16;7.20;99.90
23748;DHT22;12054;53.662;10.126;2023-01-10T01:17:42;7.10;99.90
23748;DHT22;12054;53.662;10.126;2023-01-10T01:20:08;7.20;99.90
23748;DHT22;12054;53.662;10.126;2023-01-10T01:22:33;7.20;99.90
23748;DHT22;12054;53.662;10.126;2023-01-10T01:24:59;7.20;99.90
23748;DHT22;12054;53.662;10.126;2023-01-10T01:27:25;7.20;99.90
23748;DHT22;12054;53.662;10.126;2023-01-10T01:29:51;7.10;99.90
23748;DHT22;12054;53.662;10.126;2023-01-10T01:32:16;7.20;99.90
23748;DHT22;12054;53.662;10.126;2023-01-10T01:34:42;7.10;99.90
23748;DHT22;12054;53.662;10.126;2023-01-10T01:37:07;7.20;99.90
23748;DHT22;12054;53.662;10.126;2023-01-10T01:39:33;7.10;99.90
23748;DHT22;12054;53.662;10.126;2023-01-10T01:41:58;7.10;99.90
23748;DHT22;12054;53.662;10.126;2023-01-10T01:44:44;7.10;99.90
23748;DHT22;12054;53.662;10.126;2023-01-10T01:47:24;7.00;99.90
23748;DHT22;12054;53.662;10.126;2023-01-10T01:49:51;7.10;99.90
23748;DHT22;12054;53.662;10.126;2023-01-10T01:52:27;7.00;99.90
23748;DHT22;12054;53.662;10.126;2023-01-10T01:54:57;7.10;99.90
23748;DHT22;12054;53.662;10.126;2023-01-10T01:57:25;7.10;99.90
23748;DHT22;12054;53.662;10.126;2023-01-10T01:59:53;7.00;99.90
23748;DHT22;12054;53.662;10.126;2023-01-10T02:02:26;7.00;99.90
23748;DHT22;12054;53.662;10.126;2023-01-10T02:05:02;7.00;99.90
23748;DHT22;12054;53.662;10.126;2023-01-10T02:07:39;7.00;99.90
23748;DHT22;12054;53.662;10.126;2023-01-10T02:10:18;7.00;99.90
23748;DHT22;12054;53.662;10.126;2023-01-10T02:12:46;7.00;99.90
23748;DHT22;12054;53.662;10.126;2023-01-10T02:15:13;7.00;99.90
23748;DHT22;12054;53.662;10.126;2023-01-10T02:17:40;7.00;99.90
23748;DHT22;12054;53.662;10.126;2023-01-10T02:20:11;7.00;99.90
23748;DHT22;12054;53.662;10.126;2023-01-10T02:29:03;7.00;99.90
23748;DHT22;12054;53.662;10.126;2023-01-10T02:34:19;7.00;99.90
23748;DHT22;12054;53.662;10.126;2023-01-10T02:37:12;7.00;99.90
23748;DHT22;12054;53.662;10.126;2023-01-10T02:39:54;6.90;99.90
23748;DHT22;12054;53.662;10.126;2023-01-10T02:42:51;7.00;99.90
23748;DHT22;12054;53.662;10.126;2023-01-10T02:47:55;7.00;99.90
23748;DHT22;12054;53.662;10.126;2023-01-10T02:53:02;6.90;99.90
23748;DHT22;12054;53.662;10.126;2023-01-10T03:07:18;7.00;99.90
23748;DHT22;12054;53.662;10.126;2023-01-10T03:09:59;7.00;99.90
23748;DHT22;12054;53.662;10.126;2023-01-10T03:12:47;6.90;99.90
23748;DHT22;12054;53.662;10.126;2023-01-10T03:15:18;6.90;99.90
23748;DHT22;12054;53.662;10.126;2023-01-10T03:17:46;6.90;99.90
23748;DHT22;12054;53.662;10.126;2023-01-10T03:20:13;6.90;99.90
23748;DHT22;12054;53.662;10.126;2023-01-10T03:22:40;6.90;99.90
23748;DHT22;12054;53.662;10.126;2023-01-10T03:25:08;6.90;99.90
23748;DHT22;12054;53.662;10.126;2023-01-10T03:27:52;6.90;99.90
23748;DHT22;12054;53.662;10.126;2023-01-10T03:30:34;6.90;99.90
23748;DHT22;12054;53.662;10.126;2023-01-10T03:33:05;6.90;99.90
23748;DHT22;12054;53.662;10.126;2023-01-10T03:50:19;6.90;99.90
23748;DHT22;12054;53.662;10.126;2023-01-10T03:52:45;6.90;99.90
23748;DHT22;12054;53.662;10.126;2023-01-10T03:55:13;6.90;99.90
23748;DHT22;12054;53.662;10.126;2023-01-10T03:57:43;6.80;99.90
23748;DHT22;12054;53.662;10.126;2023-01-10T04:00:11;6.90;99.90
23748;DHT22;12054;53.662;10.126;2023-01-10T04:02:37;6.80;99.90
23748;DHT22;12054;53.662;10.126;2023-01-10T04:05:04;6.80;99.90
23748;DHT22;12054;53.662;10.126;2023-01-10T04:07:30;6.80;99.90
23748;DHT22;12054;53.662;10.126;2023-01-10T04:09:56;6.80;99.90
23748;DHT22;12054;53.662;10.126;2023-01-10T04:12:22;6.80;99.90
23748;DHT22;12054;53.662;10.126;2023-01-10T04:14:47;6.80;99.90
23748;DHT22;12054;53.662;10.126;2023-01-10T04:17:14;6.80;99.90
23748;DHT22;12054;53.662;10.126;2023-01-10T04:19:40;6.80;99.90
23748;DHT22;12054;53.662;10.126;2023-01-10T04:22:07;6.80;99.90
23748;DHT22;12054;53.662;10.126;2023-01-10T04:24:32;6.70;99.90
23748;DHT22;12054;53.662;10.126;2023-01-10T04:26:58;6.80;99.90
23748;DHT22;12054;53.662;10.126;2023-01-10T04:29:24;6.80;99.90
23748;DHT22;12054;53.662;10.126;2023-01-10T04:31:49;6.70;99.90
23748;DHT22;12054;53.662;10.126;2023-01-10T04:34:15;6.70;99.90
23748;DHT22;12054;53.662;10.126;2023-01-10T04:36:43;6.70;99.90
23748;DHT22;12054;53.662;10.126;2023-01-10T04:39:08;6.60;99.90
23748;DHT22;12054;53.662;10.126;2023-01-10T04:41:34;6.60;99.90
23748;DHT22;12054;53.662;10.126;2023-01-10T04:44:00;6.60;99.90
23748;DHT22;12054;53.662;10.126;2023-01-10T04:46:28;6.70;99.90
23748;DHT22;12054;53.662;10.126;2023-01-10T04:48:54;6.70;99.90
23748;DHT22;12054;53.662;10.126;2023-01-10T04:51:27;6.70;99.90
23748;DHT22;12054;53.662;10.126;2023-01-10T04:53:53;6.60;99.90
23748;DHT22;12054;53.662;10.126;2023-01-10T04:56:22;6.60;99.90
23748;DHT22;12054;53.662;10.126;2023-01-10T04:58:48;6.50;99.90
23748;DHT22;12054;53.662;10.126;2023-01-10T05:01:16;6.60;99.90
23748;DHT22;12054;53.662;10.126;2023-01-10T05:03:42;6.60;99.90
23748;DHT22;12054;53.662;10.126;2023-01-10T05:06:08;6.60;99.90
23748;DHT22;12054;53.662;10.126;2023-01-10T05:08:34;6.60;99.90
23748;DHT22;12054;53.662;10.126;2023-01-10T05:10:59;6.60;99.90
23748;DHT22;12054;53.662;10.126;2023-01-10T05:13:25;6.60;99.90
23748;DHT22;12054;53.662;10.126;2023-01-10T05:15:55;6.50;99.90
23748;DHT22;12054;53.662;10.126;2023-01-10T05:18:21;6.50;99.90
23748;DHT22;12054;53.662;10.126;2023-01-10T05:20:47;6.50;99.90
23748;DHT22;12054;53.662;10.126;2023-01-10T05:23:16;6.60;99.90
23748;DHT22;12054;53.662;10.126;2023-01-10T05:25:42;6.50;99.90
23748;DHT22;12054;53.662;10.126;2023-01-10T05:28:08;6.50;99.90
23748;DHT22;12054;53.662;10.126;2023-01-10T05:30:34;6.50;99.90
23748;DHT22;12054;53.662;10.126;2023-01-10T05:32:59;6.50;99.90
23748;DHT22;12054;53.662;10.126;2023-01-10T05:35:25;6.50;99.90
23748;DHT22;12054;53.662;10.126;2023-01-10T05:37:51;6.50;99.90
23748;DHT22;12054;53.662;10.126;2023-01-10T05:40:17;6.50;99.90
23748;DHT22;12054;53.662;10.126;2023-01-10T05:42:43;6.50;99.90
23748;DHT22;12054;53.662;10.126;2023-01-10T05:45:08;6.50;99.90
23748;DHT22;12054;53.662;10.126;2023-01-10T05:47:34;6.50;99.90
23748;DHT22;12054;53.662;10.126;2023-01-10T05:50:00;6.50;99.90
23748;DHT22;12054;53.662;10.126;2023-01-10T05:52:26;6.50;99.90
23748;DHT22;12054;53.662;10.126;2023-01-10T05:54:51;6.50;99.90
23748;DHT22;12054;53.662;10.126;2023-01-10T05:57:17;6.50;99.90
23748;DHT22;12054;53.662;10.126;2023-01-10T05:59:43;6.50;99.90
23748;DHT22;12054;53.662;10.126;2023-01-10T06:02:09;6.50;99.90
23748;DHT22;12054;53.662;10.126;2023-01-10T06:04:35;6.50;99.90
23748;DHT22;12054;53.662;10.126;2023-01-10T06:07:03;6.50;99.90
23748;DHT22;12054;53.662;10.126;2023-01-10T06:09:28;6.50;99.90
23748;DHT22;12054;53.662;10.126;2023-01-10T06:11:54;6.50;99.90
23748;DHT22;12054;53.662;10.126;2023-01-10T06:14:19;6.40;99.90
23748;DHT22;12054;53.662;10.126;2023-01-10T06:16:45;6.40;99.90
23748;DHT22;12054;53.662;10.126;2023-01-10T06:19:11;6.40;99.90
23748;DHT22;12054;53.662;10.126;2023-01-10T06:21:37;6.40;99.90
23748;DHT22;12054;53.662;10.126;2023-01-10T06:24:03;6.40;99.90
23748;DHT22;12054;53.662;10.126;2023-01-10T06:26:31;6.30;99.90
23748;DHT22;12054;53.662;10.126;2023-01-10T06:28:59;6.40;99.90
23748;DHT22;12054;53.662;10.126;2023-01-10T06:31:28;6.30;99.90
23748;DHT22;12054;53.662;10.126;2023-01-10T06:33:56;6.30;99.90
23748;DHT22;12054;53.662;10.126;2023-01-10T06:36:22;6.30;99.90
23748;DHT22;12054;53.662;10.126;2023-01-10T06:38:52;6.40;99.90
23748;DHT22;12054;53.662;10.126;2023-01-10T06:41:18;6.30;99.90
23748;DHT22;12054;53.662;10.126;2023-01-10T06:43:48;6.20;99.90
23748;DHT22;12054;53.662;10.126;2023-01-10T06:46:16;6.20;99.90
23748;DHT22;12054;53.662;10.126;2023-01-10T06:48:44;6.10;99.90
23748;DHT22;12054;53.662;10.126;2023-01-10T06:51:10;6.20;99.90
23748;DHT22;12054;53.662;10.126;2023-01-10T06:53:36;6.20;99.90
23748;DHT22;12054;53.662;10.126;2023-01-10T06:56:02;6.20;99.90
23748;DHT22;12054;53.662;10.126;2023-01-10T06:58:30;6.10;99.90
23748;DHT22;12054;53.662;10.126;2023-01-10T07:00:56;6.10;99.90
23748;DHT22;12054;53.662;10.126;2023-01-10T07:03:21;6.10;99.90
23748;DHT22;12054;53.662;10.126;2023-01-10T07:05:47;6.10;99.90
23748;DHT22;12054;53.662;10.126;2023-01-10T07:08:12;6.10;99.90
23748;DHT22;12054;53.662;10.126;2023-01-10T07:10:43;6.00;99.90
23748;DHT22;12054;53.662;10.126;2023-01-10T07:13:09;6.10;99.90
23748;DHT22;12054;53.662;10.126;2023-01-10T07:15:35;6.10;99.90
23748;DHT22;12054;53.662;10.126;2023-01-10T07:18:01;6.10;99.90
23748;DHT22;12054;53.662;10.126;2023-01-10T07:20:27;6.00;99.90
23748;DHT22;12054;53.662;10.126;2023-01-10T07:22:59;6.00;99.90
23748;DHT22;12054;53.662;10.126;2023-01-10T07:25:27;6.00;99.90
23748;DHT22;12054;53.662;10.126;2023-01-10T07:27:54;6.00;99.90
23748;DHT22;12054;53.662;10.126;2023-01-10T07:30:20;6.00;99.90
23748;DHT22;12054;53.662;10.126;2023-01-10T07:32:52;6.00;99.90
23748;DHT22;12054;53.662;10.126;2023-01-10T07:35:17;6.00;99.90
23748;DHT22;12054;53.662;10.126;2023-01-10T07:37:43;6.00;99.90
23748;DHT22;12054;53.662;10.126;2023-01-10T07:40:09;6.00;99.90
23748;DHT22;12054;53.662;10.126;2023-01-10T07:42:35;6.00;99.90
23748;DHT22;12054;53.662;10.126;2023-01-10T07:45:00;6.00;99.90
23748;DHT22;12054;53.662;10.126;2023-01-10T07:47:29;6.00;99.90
23748;DHT22;12054;53.662;10.126;2023-01-10T07:49:58;6.00;99.90
23748;DHT22;12054;53.662;10.126;2023-01-10T07:52:24;5.90;99.90
23748;DHT22;12054;53.662;10.126;2023-01-10T07:54:50;6.00;99.90
23748;DHT22;12054;53.662;10.126;2023-01-10T07:57:16;6.00;99.90
23748;DHT22;12054;53.662;10.126;2023-01-10T07:59:42;6.00;99.90
23748;DHT22;12054;53.662;10.126;2023-01-10T08:02:09;6.00;99.90
23748;DHT22;12054;53.662;10.126;2023-01-10T08:04:35;6.00;99.90
23748;DHT22;12054;53.662;10.126;2023-01-10T08:07:03;5.90;99.90
23748;DHT22;12054;53.662;10.126;2023-01-10T08:09:29;5.90;99.90
23748;DHT22;12054;53.662;10.126;2023-01-10T08:11:55;6.00;99.90
23748;DHT22;12054;53.662;10.126;2023-01-10T08:14:20;5.90;99.90
23748;DHT22;12054;53.662;10.126;2023-01-10T08:16:46;6.00;99.90
23748;DHT22;12054;53.662;10.126;2023-01-10T08:19:12;6.00;99.90
23748;DHT22;12054;53.662;10.126;2023-01-10T08:21:41;5.90;99.90
23748;DHT22;12054;53.662;10.126;2023-01-10T08:24:07;5.90;99.90
23748;DHT22;12054;53.662;10.126;2023-01-10T08:26:32;6.00;99.90
23748;DHT22;12054;53.662;10.126;2023-01-10T08:28:59;5.90;99.90
23748;DHT22;12054;53.662;10.126;2023-01-10T08:31:25;6.10;99.90
23748;DHT22;12054;53.662;10.126;2023-01-10T08:33:51;5.90;99.90
23748;DHT22;12054;53.662;10.126;2023-01-10T08:36:18;6.10;99.90
23748;DHT22;12054;53.662;10.126;2023-01-10T08:38:45;6.00;99.90
23748;DHT22;12054;53.662;10.126;2023-01-10T08:41:11;6.00;99.90
23748;DHT22;12054;53.662;10.126;2023-01-10T08:43:36;6.00;99.90
23748;DHT22;12054;53.662;10.126;2023-01-10T08:46:02;6.00;99.90
23748;DHT22;12054;53.662;10.126;2023-01-10T08:48:28;6.00;99.90
23748;DHT22;12054;53.662;10.126;2023-01-10T08:50:53;6.10;99.90
23748;DHT22;12054;53.662;10.126;2023-01-10T08:53:19;6.10;99.90
23748;DHT22;12054;53.662;10.126;2023-01-10T08:55:48;6.20;99.90
23748;DHT22;12054;53.662;10.126;2023-01-10T08:58:17;6.10;99.90
23748;DHT22;12054;53.662;10.126;2023-01-10T09:00:43;6.10;99.90
23748;DHT22;12054;53.662;10.126;2023-01-10T09:03:09;6.10;99.90
23748;DHT22;12054;53.662;10.126;2023-01-10T09:05:35;6.20;99.90
23748;DHT22;12054;53.662;10.126;2023-01-10T09:08:01;6.20;99.90
23748;DHT22;12054;53.662;10.126;2023-01-10T09:10:28;6.20;99.90
23748;DHT22;12054;53.662;10.126;2023-01-10T09:12:59;6.20;99.90
23748;DHT22;12054;53.662;10.126;2023-01-10T09:15:32;6.20;99.90
23748;DHT22;12054;53.662;10.126;2023-01-10T09:18:02;6.20;99.90
23748;DHT22;12054;53.662;10.126;2023-01-10T09:20:38;6.20;99.90
23748;DHT22;12054;53.662;10.126;2023-01-10T09:23:14;6.20;99.90
23748;DHT22;12054;53.662;10.126;2023-01-10T09:25:59;6.30;99.90
23748;DHT22;12054;53.662;10.126;2023-01-10T09:28:31;6.40;99.90
23748;DHT22;12054;53.662;10.126;2023-01-10T09:31:09;6.50;99.90
23748;DHT22;12054;53.662;10.126;2023-01-10T09:33:35;6.40;99.90
23748;DHT22;12054;53.662;10.126;2023-01-10T09:36:01;6.50;99.90
23748;DHT22;12054;53.662;10.126;2023-01-10T09:38:27;6.50;99.90
23748;DHT22;12054;53.662;10.126;2023-01-10T09:44:20;6.50;99.90
23748;DHT22;12054;53.662;10.126;2023-01-10T09:47:04;6.50;99.90
23748;DHT22;12054;53.662;10.126;2023-01-10T09:52:33;6.50;99.90
23748;DHT22;12054;53.662;10.126;2023-01-10T09:55:09;6.50;99.90
23748;DHT22;12054;53.662;10.126;2023-01-10T09:57:40;6.50;99.90
23748;DHT22;12054;53.662;10.126;2023-01-10T10:00:07;6.60;99.90
23748;DHT22;12054;53.662;10.126;2023-01-10T10:02:37;6.60;99.90
23748;DHT22;12054;53.662;10.126;2023-01-10T10:05:18;6.60;99.90
23748;DHT22;12054;53.662;10.126;2023-01-10T10:07:49;6.60;99.90
23748;DHT22;12054;53.662;10.126;2023-01-10T10:10:31;6.60;99.90
23748;DHT22;12054;53.662;10.126;2023-01-10T10:13:20;6.70;99.90
23748;DHT22;12054;53.662;10.126;2023-01-10T10:16:03;6.60;99.90
23748;DHT22;12054;53.662;10.126;2023-01-10T10:18:43;6.60;99.90
23748;DHT22;12054;53.662;10.126;2023-01-10T10:21:50;6.70;99.90
23748;DHT22;12054;53.662;10.126;2023-01-10T10:26:56;6.70;99.90
23748;DHT22;12054;53.662;10.126;2023-01-10T10:29:46;6.70;99.90
23748;DHT22;12054;53.662;10.126;2023-01-10T10:35:11;6.70;99.90
23748;DHT22;12054;53.662;10.126;2023-01-10T10:37:41;6.70;99.90
23748;DHT22;12054;53.662;10.126;2023-01-10T10:40:17;6.70;99.90
23748;DHT22;12054;53.662;10.126;2023-01-10T10:42:49;6.70;99.90
23748;DHT22;12054;53.662;10.126;2023-01-10T10:48:24;6.70;99.90
23748;DHT22;12054;53.662;10.126;2023-01-10T10:54:04;6.80;99.90
23748;DHT22;12054;53.662;10.126;2023-01-10T10:56:32;6.80;99.90
23748;DHT22;12054;53.662;10.126;2023-01-10T10:58:58;6.80;99.90
23748;DHT22;12054;53.662;10.126;2023-01-10T11:01:25;6.80;99.90
23748;DHT22;12054;53.662;10.126;2023-01-10T11:04:07;6.80;99.90
23748;DHT22;12054;53.662;10.126;2023-01-10T11:06:54;6.80;99.90
23748;DHT22;12054;53.662;10.126;2023-01-10T11:09:21;6.80;99.90
23748;DHT22;12054;53.662;10.126;2023-01-10T11:12:02;6.80;99.90
23748;DHT22;12054;53.662;10.126;2023-01-10T11:14:50;6.80;99.90
23748;DHT22;12054;53.662;10.126;2023-01-10T11:17:24;6.80;99.90
23748;DHT22;12054;53.662;10.126;2023-01-10T11:19:59;6.80;99.90
23748;DHT22;12054;53.662;10.126;2023-01-10T11:22:29;6.80;99.90
23748;DHT22;12054;53.662;10.126;2023-01-10T11:24:58;6.80;99.90
23748;DHT22;12054;53.662;10.126;2023-01-10T11:27:28;6.80;99.90
23748;DHT22;12054;53.662;10.126;2023-01-10T11:29:58;6.90;99.90
23748;DHT22;12054;53.662;10.126;2023-01-10T11:32:48;6.90;99.90
23748;DHT22;12054;53.662;10.126;2023-01-10T11:35:27;6.90;99.90
23748;DHT22;12054;53.662;10.126;2023-01-10T11:40:52;6.90;99.90
23748;DHT22;12054;53.662;10.126;2023-01-10T11:43:38;7.00;99.90
23748;DHT22;12054;53.662;10.126;2023-01-10T11:48:52;7.00;99.90
23748;DHT22;12054;53.662;10.126;2023-01-10T11:51:26;6.90;99.90
23748;DHT22;12054;53.662;10.126;2023-01-10T11:54:10;7.00;99.90
23748;DHT22;12054;53.662;10.126;2023-01-10T11:56:37;7.00;99.90
23748;DHT22;12054;53.662;10.126;2023-01-10T11:59:17;7.00;99.90
23748;DHT22;12054;53.662;10.126;2023-01-10T12:02:02;7.10;99.90
23748;DHT22;12054;53.662;10.126;2023-01-10T12:04:32;7.10;99.90
23748;DHT22;12054;53.662;10.126;2023-01-10T12:07:08;7.10;99.90
23748;DHT22;12054;53.662;10.126;2023-01-10T12:09:54;7.10;99.90
23748;DHT22;12054;53.662;10.126;2023-01-10T12:12:24;7.10;99.90
23748;DHT22;12054;53.662;10.126;2023-01-10T12:14:51;7.10;99.90
23748;DHT22;12054;53.662;10.126;2023-01-10T12:19:53;7.20;99.90
23748;DHT22;12054;53.662;10.126;2023-01-10T12:22:26;7.20;99.90
23748;DHT22;12054;53.662;10.126;2023-01-10T12:24:55;7.20;99.90
23748;DHT22;12054;53.662;10.126;2023-01-10T12:27:23;7.20;99.90
23748;DHT22;12054;53.662;10.126;2023-01-10T12:30:00;7.20;99.90
23748;DHT22;12054;53.662;10.126;2023-01-10T12:32:32;7.20;99.90
23748;DHT22;12054;53.662;10.126;2023-01-10T12:35:05;7.30;99.90
23748;DHT22;12054;53.662;10.126;2023-01-10T12:37:39;7.30;99.90
23748;DHT22;12054;53.662;10.126;2023-01-10T12:40:41;7.30;99.90
23748;DHT22;12054;53.662;10.126;2023-01-10T12:43:16;7.40;99.90
23748;DHT22;12054;53.662;10.126;2023-01-10T12:46:21;7.30;99.90
23748;DHT22;12054;53.662;10.126;2023-01-10T12:48:52;7.40;99.90
23748;DHT22;12054;53.662;10.126;2023-01-10T12:51:22;7.40;99.90
23748;DHT22;12054;53.662;10.126;2023-01-10T12:53:53;7.40;99.90
23748;DHT22;12054;53.662;10.126;2023-01-10T12:56:20;7.40;99.90
23748;DHT22;12054;53.662;10.126;2023-01-10T12:59:04;7.40;99.90
23748;DHT22;12054;53.662;10.126;2023-01-10T13:01:34;7.50;99.90
23748;DHT22;12054;53.662;10.126;2023-01-10T13:04:17;7.40;99.90
23748;DHT22;12054;53.662;10.126;2023-01-10T13:06:45;7.40;99.90
23748;DHT22;12054;53.662;10.126;2023-01-10T13:09:21;7.50;99.90
23748;DHT22;12054;53.662;10.126;2023-01-10T13:12:11;7.50;99.90
23748;DHT22;12054;53.662;10.126;2023-01-10T13:17:51;7.50;99.90
23748;DHT22;12054;53.662;10.126;2023-01-10T13:22:51;7.50;99.90
23748;DHT22;12054;53.662;10.126;2023-01-10T13:30:36;7.60;99.90
23748;DHT22;12054;53.662;10.126;2023-01-10T13:35:43;7.60;99.90
23748;DHT22;12054;53.662;10.126;2023-01-10T13:38:18;7.60;99.90
23748;DHT22;12054;53.662;10.126;2023-01-10T13:41:01;7.60;99.90
23748;DHT22;12054;53.662;10.126;2023-01-10T13:51:35;7.60;99.90
23748;DHT22;12054;53.662;10.126;2023-01-10T13:54:03;7.60;99.90
23748;DHT22;12054;53.662;10.126;2023-01-10T13:56:41;7.70;99.90
23748;DHT22;12054;53.662;10.126;2023-01-10T14:02:15;7.70;99.90
23748;DHT22;12054;53.662;10.126;2023-01-10T14:04:56;7.70;99.90
23748;DHT22;12054;53.662;10.126;2023-01-10T14:07:32;7.70;99.90
23748;DHT22;12054;53.662;10.126;2023-01-10T14:10:21;7.70;99.90
23748;DHT22;12054;53.662;10.126;2023-01-10T14:13:03;7.70;99.90
23748;DHT22;12054;53.662;10.126;2023-01-10T14:15:44;7.70;99.90
23748;DHT22;12054;53.662;10.126;2023-01-10T14:18:18;7.70;99.90
23748;DHT22;12054;53.662;10.126;2023-01-10T14:21:01;7.70;99.90
23748;DHT22;12054;53.662;10.126;2023-01-10T14:23:42;7.70;99.90
23748;DHT22;12054;53.662;10.126;2023-01-10T14:26:21;7.70;99.90
23748;DHT22;12054;53.662;10.126;2023-01-10T14:28:50;7.70;99.90
23748;DHT22;12054;53.662;10.126;2023-01-10T14:31:24;7.70;99.90
23748;DHT22;12054;53.662;10.126;2023-01-10T14:33:54;7.60;99.90
23748;DHT22;12054;53.662;10.126;2023-01-10T14:36:28;7.70;99.90
23748;DHT22;12054;53.662;10.126;2023-01-10T14:39:01;7.60;99.90
23748;DHT22;12054;53.662;10.126;2023-01-10T14:41:34;7.60;99.90
23748;DHT22;12054;53.662;10.126;2023-01-10T14:44:10;7.60;99.90
23748;DHT22;12054;53.662;10.126;2023-01-10T14:46:52;7.60;99.90
23748;DHT22;12054;53.662;10.126;2023-01-10T14:49:25;7.60;99.90
23748;DHT22;12054;53.662;10.126;2023-01-10T14:52:16;7.60;99.90
23748;DHT22;12054;53.662;10.126;2023-01-10T14:54:44;7.60;99.90
23748;DHT22;12054;53.662;10.126;2023-01-10T14:57:22;7.50;99.90
23748;DHT22;12054;53.662;10.126;2023-01-10T15:00:23;7.50;99.90
23748;DHT22;12054;53.662;10.126;2023-01-10T15:02:47;7.50;99.90
23748;DHT22;12054;53.662;10.126;2023-01-10T15:05:21;7.50;99.90
23748;DHT22;12054;53.662;10.126;2023-01-10T15:07:52;7.50;99.90
23748;DHT22;12054;53.662;10.126;2023-01-10T15:10:40;7.50;99.90
23748;DHT22;12054;53.662;10.126;2023-01-10T15:13:06;7.50;99.90
23748;DHT22;12054;53.662;10.126;2023-01-10T15:15:36;7.50;99.90
23748;DHT22;12054;53.662;10.126;2023-01-10T15:18:06;7.50;99.90
23748;DHT22;12054;53.662;10.126;2023-01-10T15:20:36;7.50;99.90
23748;DHT22;12054;53.662;10.126;2023-01-10T15:23:03;7.40;99.90
23748;DHT22;12054;53.662;10.126;2023-01-10T15:25:32;7.50;99.90
23748;DHT22;12054;53.662;10.126;2023-01-10T15:28:03;7.40;99.90
23748;DHT22;12054;53.662;10.126;2023-01-10T15:30:34;7.40;99.90
23748;DHT22;12054;53.662;10.126;2023-01-10T15:33:03;7.40;99.90
23748;DHT22;12054;53.662;10.126;2023-01-10T15:35:30;7.40;99.90
23748;DHT22;12054;53.662;10.126;2023-01-10T15:38:19;7.40;99.90
23748;DHT22;12054;53.662;10.126;2023-01-10T15:40:55;7.50;99.90
23748;DHT22;12054;53.662;10.126;2023-01-10T15:43:36;7.40;99.90
23748;DHT22;12054;53.662;10.126;2023-01-10T15:46:05;7.50;99.90
23748;DHT22;12054;53.662;10.126;2023-01-10T15:48:41;7.40;99.90
23748;DHT22;12054;53.662;10.126;2023-01-10T15:51:25;7.40;99.90
23748;DHT22;12054;53.662;10.126;2023-01-10T15:54:36;7.40;99.90
23748;DHT22;12054;53.662;10.126;2023-01-10T15:56:41;7.40;99.90
23748;DHT22;12054;53.662;10.126;2023-01-10T16:04:38;7.40;99.90
23748;DHT22;12054;53.662;10.126;2023-01-10T16:09:59;7.30;99.90
23748;DHT22;12054;53.662;10.126;2023-01-10T16:12:33;7.40;99.90
23748;DHT22;12054;53.662;10.126;2023-01-10T16:15:21;7.30;99.90
23748;DHT22;12054;53.662;10.126;2023-01-10T16:17:47;7.30;99.90
23748;DHT22;12054;53.662;10.126;2023-01-10T16:20:27;7.30;99.90
23748;DHT22;12054;53.662;10.126;2023-01-10T16:22:53;7.30;99.90
23748;DHT22;12054;53.662;10.126;2023-01-10T16:25:29;7.30;99.90
23748;DHT22;12054;53.662;10.126;2023-01-10T16:27:56;7.30;99.90
23748;DHT22;12054;53.662;10.126;2023-01-10T16:30:28;7.30;99.90
23748;DHT22;12054;53.662;10.126;2023-01-10T16:32:54;7.30;99.90
23748;DHT22;12054;53.662;10.126;2023-01-10T16:35:23;7.40;99.90
23748;DHT22;12054;53.662;10.126;2023-01-10T16:37:53;7.30;99.90
23748;DHT22;12054;53.662;10.126;2023-01-10T16:40:45;7.20;99.90
23748;DHT22;12054;53.662;10.126;2023-01-10T16:43:12;7.30;99.90
23748;DHT22;12054;53.662;10.126;2023-01-10T16:45:49;7.20;99.90
23748;DHT22;12054;53.662;10.126;2023-01-10T16:48:15;7.30;99.90
23748;DHT22;12054;53.662;10.126;2023-01-10T16:50:43;7.20;99.90
23748;DHT22;12054;53.662;10.126;2023-01-10T16:53:13;7.20;99.90
23748;DHT22;12054;53.662;10.126;2023-01-10T16:55:45;7.20;99.90
23748;DHT22;12054;53.662;10.126;2023-01-10T16:58:12;7.20;99.90
23748;DHT22;12054;53.662;10.126;2023-01-10T17:00:39;7.20;99.90
23748;DHT22;12054;53.662;10.126;2023-01-10T17:03:09;7.20;99.90
23748;DHT22;12054;53.662;10.126;2023-01-10T17:05:37;7.20;99.90
23748;DHT22;12054;53.662;10.126;2023-01-10T17:08:05;7.10;99.90
23748;DHT22;12054;53.662;10.126;2023-01-10T17:10:33;7.10;99.90
23748;DHT22;12054;53.662;10.126;2023-01-10T17:13:01;7.20;99.90
23748;DHT22;12054;53.662;10.126;2023-01-10T17:15:28;7.10;99.90
23748;DHT22;12054;53.662;10.126;2023-01-10T17:17:54;7.20;99.90
23748;DHT22;12054;53.662;10.126;2023-01-10T17:20:20;7.10;99.90
23748;DHT22;12054;53.662;10.126;2023-01-10T17:22:49;7.10;99.90
23748;DHT22;12054;53.662;10.126;2023-01-10T17:25:16;7.20;99.90
23748;DHT22;12054;53.662;10.126;2023-01-10T17:27:43;7.00;99.90
23748;DHT22;12054;53.662;10.126;2023-01-10T17:30:10;7.10;99.90
23748;DHT22;12054;53.662;10.126;2023-01-10T17:32:42;7.10;99.90